Time;durP1;ratioP1;P1;durP2;ratioP2;P2;SDS_P1;SDS_P2;PMS_P1;PMS_P2;Temp;Humidity;BMP_temperature;BMP_pressure;BME280_temperature;BME280_humidity;BME280_pressure;Samples;Min_cycle;Max_cycle;Signal;HPM_P1;HPM_P2
2022/03/06 00:01:25;;;;;;;18.58;13.18;;;;;;;0.27;48.96;99322.78;5047466;28;20045;-68
2022/03/06 00:03:57;;;;;;;22.13;14.93;;;;;;;1.93;48.94;99595.22;5046977;28;20064;-68
2022/03/06 00:06:30;;;;;;;16.10;12.95;;;;;;;1.91;49.33;99595.25;5047744;28;20045;-68
2022/03/06 00:09:03;;;;;;;18.40;11.55;;;;;;;1.48;49.14;99533.19;5047366;28;20041;-69
2022/03/06 00:11:35;;;;;;;19.58;13.98;;;;;;;1.90;49.28;99596.13;5047272;28;20099;-68
2022/03/06 00:14:07;;;;;;;18.40;14.00;;;;;;;1.91;49.48;99595.25;5047240;28;20046;-68
2022/03/06 00:16:41;;;;;;;19.75;13.80;;;;;;;1.95;49.20;99596.94;5047179;28;20045;-68
2022/03/06 00:19:13;;;;;;;19.40;13.70;;;;;;;1.93;49.30;99596.09;5046528;28;20045;-68
2022/03/06 00:21:47;;;;;;;20.77;14.32;;;;;;;1.90;50.11;99590.91;5047381;28;20107;-68
2022/03/06 00:24:20;;;;;;;21.42;14.32;;;;;;;1.89;49.51;99595.28;5047111;28;20063;-68
2022/03/06 00:26:52;;;;;;;19.48;13.90;;;;;;;1.85;49.77;99593.59;5047031;28;20041;-68
2022/03/06 00:29:24;;;;;;;20.88;13.30;;;;;;;1.88;49.62;99590.06;5046987;28;20045;-68
2022/03/06 00:31:56;;;;;;;20.17;13.57;;;;;;;1.85;49.99;99585.75;5047159;28;20041;-68
2022/03/06 00:34:28;;;;;;;16.58;12.15;;;;;;;1.84;49.67;99588.41;5047013;28;20053;-68
2022/03/06 00:37:02;;;;;;;19.80;12.70;;;;;;;1.80;49.78;99581.50;5046856;28;20041;-68
2022/03/06 00:39:34;;;;;;;18.10;12.77;;;;;;;1.82;49.91;99591.03;5047085;28;20171;-68
2022/03/06 00:42:08;;;;;;;20.27;13.43;;;;;;;0.82;49.81;99438.50;5046677;28;20285;-69
2022/03/06 00:44:40;;;;;;;20.80;13.27;;;;;;;1.74;49.90;99581.59;5046653;28;20099;-68
2022/03/06 00:47:12;;;;;;;21.45;13.25;;;;;;;1.71;49.89;99581.66;5046665;28;20339;-68
2022/03/06 00:49:44;;;;;;;19.52;13.43;;;;;;;1.62;50.82;99587.00;5046890;28;20103;-69
2022/03/06 00:52:18;;;;;;;19.05;13.57;;;;;;;1.59;50.32;99585.28;5046513;28;20099;-68
2022/03/06 00:54:50;;;;;;;20.20;13.93;;;;;;;1.59;50.33;99586.13;5046814;28;20065;-68
2022/03/06 00:57:20;;;;;;;21.05;15.45;;;;;;;1.57;50.37;99590.53;5046689;28;20036;-68
2022/03/06 00:59:51;;;;;;;20.67;14.25;;;;;;;1.58;50.22;99591.38;5046612;28;20042;-68
2022/03/06 01:02:21;;;;;;;19.33;14.07;;;;;;;1.50;50.38;99588.91;5046613;28;20041;-68
2022/03/06 01:04:51;;;;;;;21.60;14.80;;;;;;;1.32;50.42;99556.97;5046299;28;20046;-68
2022/03/06 01:07:22;;;;;;;20.10;13.93;;;;;;;1.57;50.34;99595.75;5046275;28;20049;-69
2022/03/06 01:09:51;;;;;;;18.23;12.15;;;;;;;1.53;50.38;99601.03;5046490;28;20029;-69
2022/03/06 01:12:21;;;;;;;18.08;12.85;;;;;;;1.48;50.68;99597.63;5046383;28;20069;-68
2022/03/06 01:14:51;;;;;;;21.08;13.13;;;;;;;1.51;50.23;99603.69;5046399;28;20030;-68
2022/03/06 01:17:21;;;;;;;18.73;13.60;;;;;;;1.52;50.58;99599.31;5045552;28;20037;-68
2022/03/06 01:19:52;;;;;;;19.58;13.10;;;;;;;1.51;50.44;99594.97;5046900;28;20120;-68
2022/03/06 01:22:23;;;;;;;18.60;14.30;;;;;;;1.54;50.78;99592.31;5046272;28;20290;-68
2022/03/06 01:24:52;;;;;;;21.38;14.05;;;;;;;1.51;50.58;99587.16;5045981;28;20041;-68
2022/03/06 01:27:22;;;;;;;21.65;15.52;;;;;;;1.52;50.50;99581.91;5046173;28;20075;-69
2022/03/06 01:29:52;;;;;;;23.50;15.23;;;;;;;1.56;50.91;99586.19;5045767;28;20254;-68
2022/03/06 01:32:22;;;;;;;20.00;13.77;;;;;;;1.56;51.08;99587.94;5045833;28;20065;-68
2022/03/06 01:34:53;;;;;;;18.35;12.38;;;;;;;1.60;50.29;99584.44;5046029;28;20244;-68
2022/03/06 01:37:24;;;;;;;19.40;13.93;;;;;;;1.50;50.62;99588.03;5046021;28;20125;-68
2022/03/06 01:39:53;;;;;;;17.65;13.20;;;;;;;0.92;50.57;99515.75;5045750;28;20037;-68
2022/03/06 01:42:23;;;;;;;18.48;12.75;;;;;;;1.50;50.86;99582.81;5045986;28;20115;-68
2022/03/06 01:44:53;;;;;;;19.13;13.38;;;;;;;1.53;50.27;99582.75;5045167;28;20076;-68
2022/03/06 01:47:39;;;;;;;19.23;13.32;;;;;;;1.54;51.35;99574.91;5044912;28;20039;-69
2022/03/06 01:50:15;;;;;;;20.73;13.60;;;;;;;1.54;50.75;99580.13;5045854;28;20042;-68
2022/03/06 01:52:51;;;;;;;21.20;15.10;;;;;;;1.53;50.38;99581.00;5045282;28;20041;-69
2022/03/06 01:55:25;;;;;;;20.52;12.95;;;;;;;1.49;50.04;99581.94;5045468;28;20087;-69
2022/03/06 01:58:00;;;;;;;18.83;12.80;;;;;;;1.49;50.34;99576.72;5045781;28;20041;-68
2022/03/06 02:00:36;;;;;;;21.60;13.45;;;;;;;0.78;50.30;99457.69;5045479;28;20041;-69
2022/03/06 02:03:09;;;;;;;17.88;12.82;;;;;;;1.43;50.48;99574.19;5045642;28;20037;-68
2022/03/06 02:05:41;;;;;;;17.63;12.90;;;;;;;1.46;50.31;99570.69;5045679;28;20041;-69
2022/03/06 02:08:15;;;;;;;20.73;13.20;;;;;;;1.50;50.10;99577.59;5045390;28;20045;-69
2022/03/06 02:10:49;;;;;;;23.00;13.18;;;;;;;1.50;49.85;99573.22;5045375;28;20087;-68
2022/03/06 02:13:21;;;;;;;19.60;12.60;;;;;;;1.40;50.05;99568.16;5045383;28;20099;-68
2022/03/06 02:15:54;;;;;;;18.33;12.05;;;;;;;1.38;49.97;99562.09;5045212;28;20400;-68
2022/03/06 02:18:26;;;;;;;19.88;13.25;;;;;;;1.40;49.79;99571.63;5045540;28;20096;-68
2022/03/06 02:20:58;;;;;;;16.95;12.77;;;;;;;1.39;49.75;99569.91;5045282;28;20091;-68
2022/03/06 02:23:32;;;;;;;15.60;12.23;;;;;;;1.40;49.91;99570.75;5045521;28;20134;-68
2022/03/06 02:26:06;;;;;;;20.35;13.90;;;;;;;1.34;49.67;99569.09;5045500;28;20100;-68
2022/03/06 02:28:39;;;;;;;16.67;12.53;;;;;;;1.34;49.81;99561.28;5049158;28;20037;-68
2022/03/06 02:31:12;;;;;;;18.60;12.80;;;;;;;0.35;49.79;99395.69;5049233;28;20042;-68
2022/03/06 02:33:44;;;;;;;15.65;11.40;;;;;;;1.36;49.58;99569.94;5049190;28;20099;-68
2022/03/06 02:36:17;;;;;;;18.85;11.88;;;;;;;1.33;49.50;99564.78;5048218;28;20087;-68
2022/03/06 02:38:51;;;;;;;17.45;12.30;;;;;;;1.31;49.63;99558.72;5049102;28;20088;-68
2022/03/06 02:41:23;;;;;;;16.52;11.93;;;;;;;1.31;49.33;99558.72;5049042;28;20041;-68
2022/03/06 02:43:55;;;;;;;18.27;12.45;;;;;;;1.28;49.29;99561.38;5049261;28;20045;-68
2022/03/06 02:46:27;;;;;;;17.90;12.65;;;;;;;1.24;49.36;99568.38;5048884;28;20084;-68
2022/03/06 02:48:59;;;;;;;15.90;11.10;;;;;;;1.27;49.25;99570.09;5048897;28;20289;-68
2022/03/06 02:51:31;;;;;;;17.95;12.18;;;;;;;1.25;49.40;99561.41;5048811;28;20041;-68
2022/03/06 02:54:05;;;;;;;18.70;11.98;;;;;;;1.23;49.54;99569.25;5048712;28;20057;-68
2022/03/06 02:56:37;;;;;;;18.27;12.85;;;;;;;1.28;49.36;99566.59;5048656;28;20083;-68
2022/03/06 02:59:10;;;;;;;18.85;12.35;;;;;;;1.29;49.31;99564.84;5048428;28;20053;-68
2022/03/06 03:01:42;;;;;;;17.70;12.05;;;;;;;1.33;49.19;99582.19;5048914;28;20045;-68
2022/03/06 03:04:15;;;;;;;14.60;11.57;;;;;;;1.25;49.04;99574.47;5048634;28;20252;-68
2022/03/06 03:06:50;;;;;;;17.52;12.80;;;;;;;1.22;49.28;99570.16;5048521;28;20045;-68
2022/03/06 03:09:25;;;;;;;17.08;12.05;;;;;;;1.25;49.26;99566.63;5048472;28;20045;-69
2022/03/06 03:11:57;;;;;;;16.60;11.40;;;;;;;1.21;49.35;99568.41;5047698;28;20293;-68
2022/03/06 03:14:31;;;;;;;20.33;12.35;;;;;;;1.22;49.34;99571.91;5048445;28;20090;-68
2022/03/06 03:17:04;;;;;;;16.83;12.47;;;;;;;1.16;49.47;99571.97;5048640;28;20103;-68
2022/03/06 03:19:37;;;;;;;15.90;11.35;;;;;;;1.17;49.40;99573.72;5048260;28;20041;-68
2022/03/06 03:22:09;;;;;;;20.10;13.02;;;;;;;1.14;49.38;99573.75;5048216;28;20049;-68
2022/03/06 03:24:42;;;;;;;17.88;13.38;;;;;;;1.11;49.57;99581.63;5048503;28;20244;-68
2022/03/06 03:27:14;;;;;;;19.45;12.68;;;;;;;1.12;49.58;99579.00;5048181;28;20045;-68
2022/03/06 03:29:47;;;;;;;16.95;11.80;;;;;;;1.13;49.27;99574.63;5048413;28;20224;-69
2022/03/06 03:32:19;;;;;;;16.05;11.57;;;;;;;1.11;49.54;99581.63;5048056;28;20037;-68
2022/03/06 03:34:51;;;;;;;17.25;12.88;;;;;;;1.13;49.26;99580.72;5047930;28;20320;-68
2022/03/06 03:37:21;;;;;;;19.15;14.02;;;;;;;1.11;49.19;99581.63;5048253;28;20061;-68
2022/03/06 03:39:52;;;;;;;21.95;11.93;;;;;;;1.11;49.30;99581.63;5047600;28;20041;-68
2022/03/06 03:42:21;;;;;;;15.35;12.07;;;;;;;1.09;49.37;99580.78;5047885;28;20208;-68
2022/03/06 03:44:51;;;;;;;18.02;12.25;;;;;;;1.06;49.55;99586.03;5047903;28;20292;-68
2022/03/06 03:47:21;;;;;;;19.83;12.90;;;;;;;1.06;49.17;99580.81;5048055;28;20300;-68
2022/03/06 03:49:51;;;;;;;17.17;10.95;;;;;;;1.08;49.18;99579.91;5047784;28;20229;-68
2022/03/06 03:52:22;;;;;;;16.13;10.02;;;;;;;1.08;49.16;99579.06;5047958;28;20080;-67
2022/03/06 03:54:53;;;;;;;14.27;10.30;;;;;;;1.08;49.11;99579.91;5047552;28;20108;-68
2022/03/06 03:57:23;;;;;;;16.42;11.18;;;;;;;1.09;49.17;99588.59;5047881;28;20061;-68
2022/03/06 03:59:52;;;;;;;15.90;11.63;;;;;;;-0.05;48.97;99398.78;5047888;28;20072;-68
2022/03/06 04:02:23;;;;;;;15.70;11.32;;;;;;;1.04;49.12;99586.06;5047518;28;20045;-68
2022/03/06 04:04:53;;;;;;;17.25;11.70;;;;;;;1.01;49.27;99588.72;5047480;28;20044;-68
2022/03/06 04:07:22;;;;;;;17.95;12.30;;;;;;;0.02;49.41;99430.84;5047724;28;20048;-68
2022/03/06 04:09:54;;;;;;;17.73;11.32;;;;;;;1.03;49.13;99579.13;5047655;28;20026;-68
2022/03/06 04:12:23;;;;;;;15.45;11.30;;;;;;;0.98;49.07;99590.50;5047602;28;20057;-67
2022/03/06 04:14:53;;;;;;;14.80;11.80;;;;;;;1.04;48.94;99590.41;5047308;28;20045;-68
2022/03/06 04:17:23;;;;;;;16.52;11.43;;;;;;;1.08;48.79;99592.09;5046403;28;20055;-68
2022/03/06 04:19:53;;;;;;;15.70;11.80;;;;;;;1.09;48.64;99584.25;5047401;28;20049;-68
2022/03/06 04:22:23;;;;;;;17.45;11.85;;;;;;;1.02;48.85;99592.19;5047375;28;20109;-68
2022/03/06 04:24:55;;;;;;;14.43;10.13;;;;;;;0.97;48.87;99591.38;5047344;28;20041;-68
2022/03/06 04:27:24;;;;;;;14.18;10.90;;;;;;;0.95;48.91;99586.19;5047293;28;20096;-68
2022/03/06 04:29:54;;;;;;;18.02;11.82;;;;;;;0.99;48.91;99587.88;5047261;28;20041;-68
2022/03/06 04:32:24;;;;;;;17.45;12.13;;;;;;;0.97;48.84;99592.25;5047253;28;20178;-68
2022/03/06 04:34:54;;;;;;;17.15;11.82;;;;;;;0.90;49.06;99591.44;5046905;28;20293;-67
2022/03/06 04:37:24;;;;;;;19.25;11.98;;;;;;;0.91;49.06;99598.41;5046825;28;20068;-68
2022/03/06 04:39:56;;;;;;;16.15;11.68;;;;;;;0.73;48.92;99562.09;5047050;28;20049;-68
2022/03/06 04:42:24;;;;;;;18.05;11.93;;;;;;;0.36;49.04;99516.47;5047005;28;20041;-68
2022/03/06 04:44:55;;;;;;;19.98;11.50;;;;;;;0.90;49.00;99594.06;5046981;28;20297;-68
2022/03/06 04:47:25;;;;;;;17.80;11.18;;;;;;;0.94;49.06;99587.06;5046970;28;20045;-68
2022/03/06 04:49:55;;;;;;;20.05;11.60;;;;;;;0.91;48.95;99605.38;5046549;28;20084;-68
2022/03/06 04:52:25;;;;;;;22.58;13.40;;;;;;;0.89;49.29;99601.91;5046817;28;20041;-68
2022/03/06 04:54:56;;;;;;;15.88;11.45;;;;;;;0.88;49.13;99597.56;5046289;28;20347;-68
2022/03/06 04:57:25;;;;;;;17.30;11.32;;;;;;;0.89;49.14;99591.47;5046414;28;20065;-67
2022/03/06 04:59:55;;;;;;;20.10;12.23;;;;;;;0.86;49.03;99597.59;5046371;28;20045;-68
2022/03/06 05:02:25;;;;;;;18.45;13.73;;;;;;;0.86;49.00;99599.34;5046402;28;20205;-68
2022/03/06 05:04:56;;;;;;;16.73;11.45;;;;;;;0.80;49.05;99599.41;5047142;28;20104;-68
2022/03/06 05:07:26;;;;;;;16.08;11.65;;;;;;;0.79;48.98;99603.75;5046515;28;20305;-68
2022/03/06 05:09:57;;;;;;;15.00;11.45;;;;;;;0.82;49.20;99600.25;5046526;28;20065;-68
2022/03/06 05:12:26;;;;;;;13.88;10.95;;;;;;;0.84;49.04;99603.72;5046504;28;20369;-68
2022/03/06 05:14:56;;;;;;;17.08;12.68;;;;;;;0.81;48.93;99595.91;5046683;28;20331;-68
2022/03/06 05:17:26;;;;;;;14.50;11.52;;;;;;;0.83;49.00;99604.59;5046327;28;20174;-68
2022/03/06 05:19:56;;;;;;;15.88;11.18;;;;;;;-2.05;48.72;99128.50;5046370;28;20049;-68
2022/03/06 05:22:27;;;;;;;19.73;11.27;;;;;;;0.76;48.92;99602.94;5046409;28;20052;-68
2022/03/06 05:24:58;;;;;;;15.65;10.98;;;;;;;0.76;48.91;99613.38;5046280;28;20045;-68
2022/03/06 05:27:28;;;;;;;19.48;12.25;;;;;;;0.76;48.66;99613.38;5046105;28;20053;-68
2022/03/06 05:29:57;;;;;;;18.85;12.63;;;;;;;0.79;48.73;99619.41;5046170;28;20266;-68
2022/03/06 05:32:27;;;;;;;14.82;11.00;;;;;;;0.78;48.82;99620.31;5045749;28;20204;-68
2022/03/06 05:34:57;;;;;;;19.70;12.90;;;;;;;0.76;48.83;99627.28;5045839;28;20104;-68
2022/03/06 05:37:29;;;;;;;16.23;11.15;;;;;;;0.75;48.91;99627.31;5045650;28;20217;-68
2022/03/06 05:39:59;;;;;;;16.10;10.98;;;;;;;0.66;49.02;99630.88;5045730;28;20041;-68
2022/03/06 05:42:27;;;;;;;17.50;11.80;;;;;;;0.70;48.79;99624.75;5045939;28;20209;-67
2022/03/06 05:44:57;;;;;;;16.77;10.93;;;;;;;0.71;48.86;99620.38;5045687;28;20109;-68
2022/03/06 05:47:28;;;;;;;16.90;11.38;;;;;;;-0.26;48.67;99473.69;5045682;28;20051;-68
2022/03/06 05:49:58;;;;;;;16.45;12.00;;;;;;;0.68;48.89;99623.03;5044835;28;20101;-68
2022/03/06 05:52:28;;;;;;;14.70;10.52;;;;;;;0.68;48.88;99626.50;5045991;28;20048;-68
2022/03/06 05:55:00;;;;;;;16.38;11.00;;;;;;;0.70;48.93;99627.34;5045335;28;20045;-68
2022/03/06 05:57:28;;;;;;;20.02;12.57;;;;;;;0.73;48.86;99616.88;5046234;28;20185;-68
2022/03/06 05:59:58;;;;;;;17.17;11.13;;;;;;;0.72;48.67;99622.97;5045759;28;20072;-68
2022/03/06 06:02:28;;;;;;;20.58;12.57;;;;;;;0.73;48.58;99622.09;5044221;28;20048;-68
2022/03/06 06:04:58;;;;;;;13.35;9.75;;;;;;;0.73;48.47;99613.41;5045682;28;20038;-68
2022/03/06 06:07:29;;;;;;;16.23;11.15;;;;;;;0.76;48.40;99621.19;5045497;28;20120;-68
2022/03/06 06:10:00;;;;;;;15.68;10.88;;;;;;;0.76;48.46;99614.25;5044722;28;20037;-68
2022/03/06 06:12:29;;;;;;;18.50;11.57;;;;;;;0.81;48.39;99625.47;5045274;28;20044;-68
2022/03/06 06:14:59;;;;;;;17.00;11.15;;;;;;;0.85;48.39;99621.09;5045795;28;20037;-68
2022/03/06 06:17:29;;;;;;;15.77;11.02;;;;;;;0.84;48.25;99615.00;5045488;28;20045;-68
2022/03/06 06:20:00;;;;;;;21.00;12.52;;;;;;;0.86;48.50;99623.69;5045750;28;20041;-68
2022/03/06 06:22:30;;;;;;;15.52;11.30;;;;;;;0.93;48.52;99621.88;5044522;28;20056;-68
2022/03/06 06:25:02;;;;;;;17.35;12.90;;;;;;;0.98;48.41;99621.81;5045470;28;20029;-68
2022/03/06 06:27:30;;;;;;;16.52;12.05;;;;;;;1.02;48.34;99618.28;5044542;28;20118;-68
2022/03/06 06:30:00;;;;;;;17.60;11.25;;;;;;;1.06;48.25;99615.63;5045164;28;20041;-68
2022/03/06 06:32:30;;;;;;;16.55;12.50;;;;;;;1.10;48.47;99616.44;5045486;28;20061;-68
2022/03/06 06:35:00;;;;;;;18.20;12.80;;;;;;;1.10;48.36;99616.44;5045437;28;20041;-68
2022/03/06 06:37:30;;;;;;;18.08;11.77;;;;;;;1.14;48.41;99623.34;5045311;28;20048;-68
2022/03/06 06:40:02;;;;;;;16.02;11.35;;;;;;;1.16;48.32;99621.59;5045411;28;20049;-68
2022/03/06 06:42:30;;;;;;;18.15;12.48;;;;;;;1.20;48.32;99618.03;5045284;28;20037;-68
2022/03/06 06:45:00;;;;;;;17.80;13.23;;;;;;;1.21;48.33;99619.78;5045071;28;20037;-68
2022/03/06 06:47:31;;;;;;;18.88;13.43;;;;;;;1.25;48.26;99618.84;5045216;28;20051;-68
2022/03/06 06:50:01;;;;;;;19.80;12.68;;;;;;;1.28;48.19;99620.56;5045192;28;20029;-68
2022/03/06 06:52:31;;;;;;;22.33;13.45;;;;;;;1.26;48.30;99626.66;5045268;28;20049;-68
2022/03/06 06:55:03;;;;;;;20.20;13.93;;;;;;;1.24;48.42;99622.34;5044704;28;20057;-68
2022/03/06 06:57:32;;;;;;;18.35;12.20;;;;;;;1.34;48.19;99629.16;5045006;28;20103;-68
2022/03/06 07:00:02;;;;;;;18.52;12.80;;;;;;;1.49;48.02;99628.97;5045168;28;20120;-68
2022/03/06 07:02:31;;;;;;;18.33;13.70;;;;;;;1.59;47.89;99632.31;5044822;28;20041;-68
2022/03/06 07:05:02;;;;;;;20.30;14.10;;;;;;;1.71;47.66;99634.78;5044859;28;20054;-68
2022/03/06 07:07:32;;;;;;;20.80;14.13;;;;;;;1.87;47.50;99635.41;5044855;28;20105;-68
2022/03/06 07:10:04;;;;;;;18.95;13.20;;;;;;;1.50;47.18;99556.69;5045107;28;20104;-68
2022/03/06 07:12:41;;;;;;;17.55;12.73;;;;;;;2.13;47.00;99651.53;5044780;28;20116;-68
2022/03/06 07:15:15;;;;;;;22.35;14.55;;;;;;;2.27;46.71;99648.69;5047632;28;20095;-67
2022/03/06 07:17:47;;;;;;;20.43;13.10;;;;;;;2.40;46.62;99649.34;5048545;28;20091;-68
2022/03/06 07:20:19;;;;;;;22.55;14.23;;;;;;;2.52;46.53;99651.75;5048079;28;20049;-68
2022/03/06 07:22:51;;;;;;;21.50;15.90;;;;;;;1.98;46.40;99531.53;5047942;28;20041;-67
2022/03/06 07:25:25;;;;;;;23.02;15.77;;;;;;;2.83;46.26;99645.03;5048503;28;20041;-67
2022/03/06 07:27:57;;;;;;;20.67;13.88;;;;;;;2.95;45.96;99645.69;5048236;28;20045;-68
2022/03/06 07:30:29;;;;;;;18.83;13.40;;;;;;;3.05;45.60;99640.25;5048183;28;20253;-68
2022/03/06 07:33:01;;;;;;;21.13;15.20;;;;;;;3.20;45.36;99645.16;5048004;28;20168;-68
2022/03/06 07:35:34;;;;;;;24.23;15.25;;;;;;;3.40;45.38;99642.13;5047990;28;20323;-67
2022/03/06 07:38:06;;;;;;;22.23;15.73;;;;;;;3.53;44.78;99645.34;5047823;28;20103;-68
2022/03/06 07:40:41;;;;;;;19.55;14.25;;;;;;;3.64;44.64;99645.09;5047124;28;20044;-68
2022/03/06 07:43:13;;;;;;;22.10;15.35;;;;;;;3.64;44.70;99643.34;5047833;28;20042;-68
2022/03/06 07:45:45;;;;;;;21.30;14.88;;;;;;;3.59;44.53;99646.97;5047703;28;20041;-68
2022/03/06 07:48:17;;;;;;;20.55;14.55;;;;;;;2.65;44.18;99479.66;5047930;28;20049;-68
2022/03/06 07:50:49;;;;;;;19.85;13.48;;;;;;;3.57;44.85;99635.66;5047480;28;20049;-68
2022/03/06 07:53:22;;;;;;;18.92;12.80;;;;;;;2.48;44.82;99457.34;5047368;28;20065;-68
2022/03/06 07:55:55;;;;;;;20.90;14.05;;;;;;;3.54;44.88;99647.06;5047400;28;20041;-68
2022/03/06 07:58:27;;;;;;;21.23;14.45;;;;;;;3.56;44.95;99636.56;5047593;28;20064;-68
2022/03/06 08:01:00;;;;;;;18.20;13.20;;;;;;;3.64;45.19;99642.47;5047199;28;20041;-68
2022/03/06 08:03:32;;;;;;;20.52;14.50;;;;;;;3.61;44.78;99642.56;5047509;28;20042;-68
2022/03/06 08:06:04;;;;;;;19.85;14.82;;;;;;;3.36;44.95;99600.31;5047308;28;20091;-68
2022/03/06 08:08:36;;;;;;;18.08;13.43;;;;;;;3.56;44.98;99634.78;5047761;28;20049;-68
2022/03/06 08:11:10;;;;;;;22.42;14.95;;;;;;;3.63;45.25;99638.13;5047276;28;20083;-68
2022/03/06 08:13:42;;;;;;;22.05;13.50;;;;;;;3.69;45.23;99635.38;5047589;28;20045;-68
2022/03/06 08:16:14;;;;;;;17.92;14.00;;;;;;;3.74;45.12;99631.75;5047189;28;20041;-68
2022/03/06 08:18:46;;;;;;;19.38;14.48;;;;;;;3.72;44.97;99624.81;5047373;28;20087;-68
2022/03/06 08:21:18;;;;;;;19.83;14.25;;;;;;;3.78;44.65;99632.53;5047363;28;20049;-68
2022/03/06 08:23:51;;;;;;;23.55;14.27;;;;;;;3.76;44.63;99632.59;5047011;28;20045;-68
2022/03/06 08:26:25;;;;;;;21.88;15.55;;;;;;;3.71;44.30;99631.81;5046896;28;20229;-68
2022/03/06 08:28:57;;;;;;;17.70;13.07;;;;;;;3.75;44.67;99628.25;5047018;28;20049;-68
2022/03/06 08:31:29;;;;;;;23.85;14.68;;;;;;;3.74;44.59;99629.13;5047206;28;20041;-68
2022/03/06 08:34:01;;;;;;;22.95;15.82;;;;;;;3.80;44.67;99620.25;5046693;28;20045;-69
2022/03/06 08:36:34;;;;;;;23.10;16.25;;;;;;;3.90;44.30;99613.91;5046625;28;20041;-68
2022/03/06 08:39:07;;;;;;;20.08;14.88;;;;;;;2.99;44.16;99471.94;5046684;28;20049;-68
2022/03/06 08:41:41;;;;;;;21.73;15.80;;;;;;;3.86;43.90;99580.78;5046682;28;20041;-68
2022/03/06 08:44:13;;;;;;;25.00;15.57;;;;;;;4.13;44.30;99614.19;5046258;28;20045;-68
2022/03/06 08:46:45;;;;;;;19.60;14.20;;;;;;;4.23;44.21;99616.63;5046656;28;20041;-68
2022/03/06 08:49:18;;;;;;;21.02;13.80;;;;;;;4.26;43.95;99613.94;5046818;28;20205;-68
2022/03/06 08:51:50;;;;;;;22.60;15.35;;;;;;;4.29;44.28;99611.22;5046546;28;20041;-68
2022/03/06 08:54:22;;;;;;;21.23;14.98;;;;;;;4.26;44.13;99617.41;5046578;28;20065;-68
2022/03/06 08:56:56;;;;;;;18.77;13.98;;;;;;;4.22;43.87;99618.38;5046650;28;20095;-68
2022/03/06 08:59:28;;;;;;;19.85;13.05;;;;;;;4.26;44.02;99606.91;5046696;28;20047;-68
2022/03/06 09:02:01;;;;;;;24.02;16.70;;;;;;;4.38;44.15;99597.88;5046449;28;20087;-68
2022/03/06 09:04:33;;;;;;;18.10;13.88;;;;;;;4.45;43.92;99602.06;5047112;28;20171;-68
2022/03/06 09:07:06;;;;;;;18.50;12.40;;;;;;;4.55;43.50;99600.03;5047017;28;20083;-68
2022/03/06 09:09:38;;;;;;;21.23;14.63;;;;;;;4.15;43.56;99538.94;5046804;28;20048;-68
2022/03/06 09:12:13;;;;;;;20.00;13.73;;;;;;;4.69;43.40;99601.41;5046353;28;20037;-68
2022/03/06 09:14:45;;;;;;;18.58;13.93;;;;;;;4.76;43.16;99596.84;5046538;28;20045;-68
2022/03/06 09:17:17;;;;;;;15.93;13.10;;;;;;;4.78;42.86;99593.25;5046154;28;20048;-68
2022/03/06 09:19:49;;;;;;;19.65;14.73;;;;;;;4.66;42.28;99590.97;5046307;28;20053;-68
2022/03/06 09:22:23;;;;;;;21.58;15.20;;;;;;;4.55;42.44;99587.78;5046334;28;20041;-68
2022/03/06 09:24:55;;;;;;;18.55;13.55;;;;;;;4.55;42.70;99593.03;5045895;28;20303;-68
2022/03/06 09:27:29;;;;;;;18.55;12.50;;;;;;;4.56;41.54;99594.75;5045865;28;20228;-68
2022/03/06 09:30:01;;;;;;;17.77;13.57;;;;;;;4.58;41.76;99590.31;5045940;28;20243;-68
2022/03/06 09:32:33;;;;;;;17.05;12.25;;;;;;;4.79;42.20;99591.50;5046008;28;20078;-68
2022/03/06 09:35:03;;;;;;;16.65;12.60;;;;;;;4.99;41.77;99583.94;5046048;28;20051;-68
2022/03/06 09:37:34;;;;;;;16.92;12.52;;;;;;;5.17;41.33;99577.28;5045635;28;20104;-68
2022/03/06 09:40:04;;;;;;;15.40;11.50;;;;;;;5.15;40.64;99546.72;5045616;28;20065;-68
2022/03/06 09:42:35;;;;;;;18.00;13.35;;;;;;;5.39;40.41;99582.75;5045806;28;20116;-68
2022/03/06 09:45:08;;;;;;;18.67;12.77;;;;;;;5.60;39.78;99579.47;5045970;28;20069;-68
2022/03/06 09:47:40;;;;;;;15.80;12.25;;;;;;;5.65;38.86;99568.81;5045484;28;20041;-71
2022/03/06 09:50:11;;;;;;;17.55;11.13;;;;;;;4.96;38.53;99442.19;5046146;28;20039;-68
2022/03/06 09:52:39;;;;;;;16.65;12.35;;;;;;;5.51;38.66;99535.06;5045593;28;20095;-69
2022/03/06 09:55:10;;;;;;;23.38;13.70;;;;;;;5.82;39.82;99563.00;5045366;28;20103;-70
2022/03/06 09:57:41;;;;;;;16.73;12.02;;;;;;;5.81;39.09;99563.91;5045840;28;20116;-69
2022/03/06 10:00:11;;;;;;;13.73;10.88;;;;;;;5.73;39.53;99556.28;5045390;28;20053;-68
2022/03/06 10:02:53;;;;;;;15.52;10.43;;;;;;;5.49;36.86;99565.81;5045252;28;20240;-68
2022/03/06 10:05:27;;;;;;;13.43;9.85;;;;;;;3.94;39.82;99365.59;5045251;28;20293;-68
2022/03/06 10:08:33;;;;;;;15.40;9.57;;;;;;;5.65;37.09;99566.19;5061609;28;20041;-68
2022/03/06 10:11:07;;;;;;;16.00;11.27;;;;;;;5.94;38.44;99568.72;4985427;28;20102;-68
2022/03/06 10:13:43;;;;;;;13.75;12.13;;;;;;;6.20;38.28;99564.38;4985184;28;20333;-68
2022/03/06 10:16:16;;;;;;;14.63;9.80;;;;;;;6.49;37.79;99556.31;5020512;28;20236;-69
2022/03/06 10:18:51;;;;;;;15.25;11.35;;;;;;;6.69;37.08;99547.69;5045286;28;20088;-68
2022/03/06 10:21:25;;;;;;;15.25;11.82;;;;;;;6.78;36.35;99549.16;5045181;28;20042;-68
2022/03/06 10:23:59;;;;;;;15.13;11.35;;;;;;;6.89;37.41;99552.28;5045130;28;20061;-68
2022/03/06 10:26:33;;;;;;;14.50;9.75;;;;;;;6.90;36.85;99522.38;5045188;28;20064;-68
2022/03/06 10:29:09;;;;;;;19.27;12.02;;;;;;;7.24;36.47;99549.16;5045508;28;20049;-68
2022/03/06 10:31:55;;;;;;;14.57;10.93;;;;;;;7.58;34.86;99547.88;5028289;28;20056;-68
2022/03/06 10:34:35;;;;;;;15.38;10.30;;;;;;;7.70;34.35;99542.97;5046006;28;20065;-68
2022/03/06 10:37:13;;;;;;;16.77;11.55;;;;;;;7.76;34.10;99535.72;5044910;28;20045;-68
2022/03/06 10:39:48;;;;;;;15.35;11.57;;;;;;;7.82;34.82;99536.34;5044099;28;20308;-68
2022/03/06 10:42:22;;;;;;;15.82;11.77;;;;;;;7.56;35.66;99549.72;5044698;28;20067;-69
2022/03/06 10:44:57;;;;;;;14.93;11.13;;;;;;;7.35;36.10;99546.16;5045099;28;20048;-68
2022/03/06 10:47:47;;;;;;;18.35;12.40;;;;;;;7.18;34.61;99535.38;5044817;28;20049;-69
2022/03/06 10:50:26;;;;;;;14.68;11.05;;;;;;;7.00;36.22;99532.50;5048664;28;20045;-69
2022/03/06 10:52:58;;;;;;;14.68;11.27;;;;;;;6.89;37.22;99541.72;5048519;28;20309;-69
2022/03/06 10:55:34;;;;;;;18.17;12.10;;;;;;;6.94;35.94;99534.53;5048628;28;20041;-69
2022/03/06 10:58:07;;;;;;;15.05;11.70;;;;;;;7.10;36.47;99533.03;5048789;28;20041;-68
2022/03/06 11:00:42;;;;;;;16.33;11.50;;;;;;;7.25;34.67;99519.25;5048693;28;20193;-69
2022/03/06 11:03:14;;;;;;;;;;;;;;;7.24;33.24;99527.22;5048706;28;20095;-68
2022/03/06 11:05:49;;;;;;;15.93;11.63;;;;;;;7.11;35.80;99491.72;5064149;28;19916;-68
2022/03/06 11:08:24;;;;;;;;;;;;;;;7.04;33.91;99528.84;5048736;28;20142;-68
2022/03/06 11:10:57;;;;;;;15.80;11.63;;;;;;;3.88;36.76;99004.81;5048474;28;19944;-68
2022/03/06 11:13:30;;;;;;;13.48;11.13;;;;;;;6.86;37.47;99534.81;5048446;28;20045;-69
2022/03/06 11:16:04;;;;;;;12.93;11.07;;;;;;;6.26;37.30;99462.38;5048274;28;20300;-69
2022/03/06 11:18:36;;;;;;;13.53;9.80;;;;;;;6.55;37.94;99521.00;5048000;28;20041;-69
2022/03/06 11:21:09;;;;;;;13.40;10.45;;;;;;;6.54;37.45;99535.94;5047812;28;20042;-68
2022/03/06 11:23:45;;;;;;;14.65;10.68;;;;;;;6.46;36.89;99524.84;5048009;28;20041;-68
2022/03/06 11:26:44;;;;;;;15.10;11.35;;;;;;;6.33;35.82;99521.78;5047979;28;20041;-69
2022/03/06 11:29:49;;;;;;;18.10;12.63;;;;;;;6.13;35.85;99529.50;5048173;28;20045;-69
2022/03/06 11:32:28;;;;;;;16.88;11.52;;;;;;;6.02;36.86;99518.47;5047602;28;20041;-69
2022/03/06 11:35:06;;;;;;;14.52;10.68;;;;;;;6.01;37.81;99517.63;5048122;28;20041;-69
2022/03/06 11:38:00;;;;;;;16.55;10.85;;;;;;;5.96;35.94;99516.91;5047748;28;20285;-69
2022/03/06 11:40:38;;;;;;;15.70;12.20;;;;;;;5.89;37.40;99507.53;5035149;28;20064;-69
2022/03/06 11:43:12;;;;;;;14.32;11.23;;;;;;;5.77;38.17;99515.81;5047670;28;20048;-68
2022/03/06 11:45:47;;;;;;;15.90;11.60;;;;;;;5.68;38.48;99511.72;5047469;28;20041;-69
2022/03/06 11:48:25;;;;;;;19.10;12.80;;;;;;;5.66;37.61;99510.06;5047644;28;20041;-69
2022/03/06 11:51:20;;;;;;;18.80;13.30;;;;;;;5.55;36.89;99517.44;5047922;28;20056;-69